Time;durP1;ratioP1;P1;durP2;ratioP2;P2;SDS_P1;SDS_P2;PMS_P1;PMS_P2;Temp;Humidity;BMP_temperature;BMP_pressure;BME280_temperature;BME280_humidity;BME280_pressure;Samples;Min_cycle;Max_cycle;Signal;HPM_P1;HPM_P2
2022/02/08 00:00:33;;;;;;;6.13;1.70;;;4.70;99.90;;;;;;4965014;28;20105;-84
2022/02/08 00:03:01;;;;;;;5.60;1.77;;;4.70;99.90;;;;;;4963305;28;20073;-83
2022/02/08 00:05:28;;;;;;;7.33;2.13;;;4.60;99.90;;;;;;4964145;28;20062;-83
2022/02/08 00:07:55;;;;;;;6.23;1.80;;;4.60;99.90;;;;;;4964458;28;20023;-85
2022/02/08 00:10:21;;;;;;;7.77;1.37;;;4.60;99.90;;;;;;4964953;28;20468;-82
2022/02/08 00:12:47;;;;;;;8.30;1.57;;;4.70;99.90;;;;;;4963322;28;20034;-79
2022/02/08 00:15:13;;;;;;;6.83;1.67;;;4.70;99.90;;;;;;4964929;28;20023;-81
2022/02/08 00:17:39;;;;;;;5.00;1.33;;;4.70;99.90;;;;;;4963297;28;20031;-81
2022/02/08 00:20:07;;;;;;;4.23;1.40;;;4.70;99.90;;;;;;4963036;28;20027;-81
2022/02/08 00:22:34;;;;;;;5.50;1.50;;;4.70;99.90;;;;;;4963827;28;20035;-81
2022/02/08 00:25:00;;;;;;;8.87;1.67;;;4.70;99.90;;;;;;4980563;28;20387;-82
2022/02/08 00:27:26;;;;;;;8.87;1.50;;;4.70;99.90;;;;;;4963908;28;20138;-82
2022/02/08 00:29:51;;;;;;;3.40;1.30;;;4.70;99.90;;;;;;4963593;28;20054;-83
2022/02/08 00:32:17;;;;;;;9.93;1.77;;;4.70;99.90;;;;;;4963133;28;20026;-81
2022/02/08 00:34:43;;;;;;;6.37;1.60;;;4.80;99.90;;;;;;4963833;28;20031;-81
2022/02/08 00:37:09;;;;;;;4.87;1.70;;;4.80;99.80;;;;;;4962623;28;20042;-81
2022/02/08 00:39:35;;;;;;;6.13;1.50;;;4.80;99.90;;;;;;4963178;28;20435;-80
2022/02/08 00:42:07;;;;;;;5.87;1.47;;;4.90;99.80;;;;;;4962525;28;20035;-80
2022/02/08 00:47:31;;;;;;;4.57;1.60;;;4.80;99.90;;;;;;4929153;28;20043;-84
2022/02/08 00:50:05;;;;;;;3.93;1.30;;;4.80;99.90;;;;;;4960002;28;20511;-84
2022/02/08 00:52:32;;;;;;;7.07;1.50;;;4.90;99.80;;;;;;4960513;28;20465;-82
2022/02/08 00:54:58;;;;;;;6.93;1.70;;;4.90;99.90;;;;;;4959991;28;20030;-83
2022/02/08 00:57:23;;;;;;;5.13;1.57;;;4.80;99.90;;;;;;4960268;28;20050;-82
2022/02/08 00:59:49;;;;;;;7.27;1.50;;;4.80;99.60;;;;;;4960716;28;20034;-82
2022/02/08 01:02:15;;;;;;;4.07;1.60;;;4.80;99.60;;;;;;4959938;28;20498;-81
2022/02/08 01:04:42;;;;;;;4.73;1.50;;;4.80;99.60;;;;;;4956632;29;20142;-82
2022/02/08 01:07:10;;;;;;;4.97;1.07;;;4.80;99.70;;;;;;4972747;28;20028;-82
2022/02/08 01:12:33;;;;;;;7.87;1.70;;;4.70;99.70;;;;;;4938000;29;20437;-81
2022/02/08 01:14:59;;;;;;;5.23;1.33;;;4.70;99.90;;;;;;4946356;29;20110;-83
2022/02/08 01:17:26;;;;;;;9.33;1.67;;;4.70;99.90;;;;;;4972561;28;20075;-82
2022/02/08 01:20:19;;;;;;;7.10;1.50;;;4.70;99.90;;;;;;4956311;28;20054;-82
2022/02/08 01:22:41;;;;;;;4.13;1.53;;;4.60;99.90;;;;;;4957435;28;20035;-82
2022/02/08 01:25:11;;;;;;;6.67;1.90;;;4.60;99.90;;;;;;4972439;28;20492;-81
2022/02/08 01:27:44;;;;;;;7.10;1.70;;;4.60;99.90;;;;;;4956845;28;20024;-81
2022/02/08 01:30:17;;;;;;;8.73;1.63;;;4.60;99.90;;;;;;4956472;28;20531;-82
2022/02/08 01:33:01;;;;;;;8.33;1.77;;;4.50;99.90;;;;;;4972709;28;20031;-82
2022/02/08 01:35:47;;;;;;;5.47;1.70;;;4.50;99.90;;;;;;4972391;28;20464;-82
2022/02/08 01:38:21;;;;;;;5.70;1.63;;;4.50;99.90;;;;;;4955610;28;20031;-82
2022/02/08 01:46:46;;;;;;;12.83;2.10;;;4.40;99.90;;;;;;4944931;28;20043;-81
2022/02/08 01:49:15;;;;;;;8.20;1.90;;;4.30;99.90;;;;;;4956435;28;20126;-84
2022/02/08 01:51:40;;;;;;;4.33;1.70;;;4.30;99.90;;;;;;4972242;28;20039;-80
2022/02/08 01:54:06;;;;;;;4.67;1.70;;;4.20;99.90;;;;;;4955117;28;20112;-79
2022/02/08 01:56:32;;;;;;;5.90;1.67;;;4.20;99.90;;;;;;4971583;28;20532;-79
2022/02/08 01:58:58;;;;;;;8.37;2.07;;;4.20;99.90;;;;;;4954694;28;20024;-80
2022/02/08 02:01:23;;;;;;;7.73;2.10;;;4.10;99.90;;;;;;4956053;28;20027;-79
2022/02/08 02:03:49;;;;;;;7.50;1.90;;;4.10;99.90;;;;;;4955561;28;20058;-79
2022/02/08 02:06:15;;;;;;;8.40;1.90;;;4.10;99.90;;;;;;4970874;28;20019;-82
2022/02/08 02:08:40;;;;;;;5.90;1.70;;;4.10;99.90;;;;;;4972017;28;20038;-82
2022/02/08 02:11:08;;;;;;;6.53;1.53;;;4.10;99.90;;;;;;4955413;28;20135;-82
2022/02/08 02:16:04;;;;;;;5.50;1.80;;;4.00;99.90;;;;;;4956522;28;20037;-82
2022/02/08 02:18:30;;;;;;;7.57;1.70;;;4.10;99.90;;;;;;4971339;28;20031;-83
2022/02/08 02:20:56;;;;;;;6.60;1.70;;;4.10;99.90;;;;;;4956073;28;20103;-88
2022/02/08 02:23:21;;;;;;;5.57;1.67;;;4.10;99.90;;;;;;4971269;28;20038;-82
2022/02/08 02:25:47;;;;;;;10.57;1.90;;;4.10;99.90;;;;;;4971265;28;20042;-84
2022/02/08 02:28:13;;;;;;;5.17;1.40;;;4.10;99.90;;;;;;4970390;28;20170;-82
2022/02/08 02:30:38;;;;;;;7.03;1.30;;;4.20;99.90;;;;;;4955234;28;20380;-82
2022/02/08 02:33:07;;;;;;;9.47;1.70;;;4.20;99.90;;;;;;4970548;28;20035;-82
2022/02/08 02:35:33;;;;;;;7.07;1.60;;;4.20;99.90;;;;;;4954655;29;20086;-79
2022/02/08 02:38:03;;;;;;;8.77;1.77;;;4.30;99.90;;;;;;4955183;28;20456;-80
2022/02/08 02:40:31;;;;;;;6.80;1.60;;;4.30;99.90;;;;;;4970554;28;20573;-80
2022/02/08 02:42:57;;;;;;;5.87;1.40;;;4.30;99.90;;;;;;4954768;28;20445;-82
2022/02/08 02:45:23;;;;;;;7.47;1.77;;;4.30;99.90;;;;;;4971247;28;20113;-81
2022/02/08 02:47:51;;;;;;;5.43;1.30;;;4.30;99.90;;;;;;4955095;29;20450;-81
2022/02/08 02:50:21;;;;;;;5.00;1.40;;;4.30;99.90;;;;;;4970196;28;20081;-81
2022/02/08 02:52:47;;;;;;;7.63;1.30;;;4.40;99.90;;;;;;4970842;28;20476;-80
2022/02/08 02:55:15;;;;;;;6.13;1.33;;;4.40;99.90;;;;;;4970041;28;20114;-80
2022/02/08 02:57:42;;;;;;;7.67;1.90;;;4.40;99.90;;;;;;4954236;28;20130;-80
2022/02/08 03:00:10;;;;;;;6.47;1.57;;;4.40;99.90;;;;;;4970074;28;20110;-80
2022/02/08 03:02:51;;;;;;;4.00;1.23;;;4.40;99.90;;;;;;4970628;28;20035;-80
2022/02/08 03:18:40;;;;;;;6.20;1.30;;;4.50;99.90;;;;;;4955299;29;20034;-80
2022/02/08 03:21:08;;;;;;;4.27;1.00;;;4.60;99.70;;;;;;4969876;28;20114;-80
2022/02/08 03:23:34;;;;;;;5.83;1.17;;;4.60;99.30;;;;;;4970490;28;20089;-80
2022/02/08 03:26:00;;;;;;;4.00;1.03;;;4.70;99.30;;;;;;4954010;28;20031;-82
2022/02/08 03:28:26;;;;;;;4.73;1.17;;;4.70;99.10;;;;;;4970178;28;20027;-81
2022/02/08 03:30:52;;;;;;;4.20;1.27;;;4.70;98.90;;;;;;4955763;28;20062;-80
2022/02/08 03:33:18;;;;;;;6.47;1.30;;;4.70;98.80;;;;;;4970208;28;20077;-80
2022/02/08 03:35:46;;;;;;;4.63;1.30;;;4.70;98.70;;;;;;4954451;28;20135;-80
2022/02/08 03:38:14;;;;;;;3.27;0.87;;;4.70;99.00;;;;;;4953729;28;20043;-80
2022/02/08 03:40:45;;;;;;;2.77;1.30;;;4.70;98.90;;;;;;4954281;28;20118;-80
2022/02/08 03:43:33;;;;;;;4.93;1.40;;;4.70;99.00;;;;;;4954437;28;20122;-80
2022/02/08 03:46:03;;;;;;;8.47;1.70;;;4.70;98.90;;;;;;4953954;28;20036;-81
2022/02/08 03:48:31;;;;;;;6.80;1.63;;;4.70;99.10;;;;;;4970076;28;20023;-82
2022/02/08 03:51:07;;;;;;;10.37;1.40;;;4.80;99.10;;;;;;4954846;28;20071;-86
2022/02/08 03:53:33;;;;;;;6.43;1.20;;;4.80;99.50;;;;;;4970979;28;20097;-80
2022/02/08 03:55:59;;;;;;;5.53;1.23;;;4.80;99.90;;;;;;4969859;28;20449;-80
2022/02/08 03:58:24;;;;;;;3.03;1.20;;;4.70;99.60;;;;;;4955445;28;20031;-80
2022/02/08 04:01:10;;;;;;;3.13;1.00;;;4.70;99.70;;;;;;4954356;28;20408;-80
2022/02/08 04:03:38;;;;;;;7.20;1.33;;;4.70;99.90;;;;;;4953908;28;20117;-80
2022/02/08 04:06:05;;;;;;;2.40;0.93;;;4.70;99.80;;;;;;4953648;28;20422;-79
2022/02/08 04:08:33;;;;;;;4.40;1.50;;;4.70;99.90;;;;;;4955071;28;20123;-80
2022/02/08 04:11:00;;;;;;;5.60;1.30;;;4.70;99.90;;;;;;4969850;28;20118;-81
2022/02/08 04:13:43;;;;;;;6.37;1.20;;;4.70;99.90;;;;;;4969828;28;20105;-80
2022/02/08 04:16:22;;;;;;;6.53;1.30;;;4.70;99.90;;;;;;4953021;28;20110;-82
2022/02/08 04:45:26;;;;;;;6.77;1.50;;;4.90;99.80;;;;;;4958012;28;20039;-81
2022/02/08 04:50:20;;;;;;;8.70;1.57;;;4.90;99.70;;;;;;4957796;28;20103;-82
2022/02/08 04:52:46;;;;;;;5.77;1.20;;;4.90;99.30;;;;;;4973415;28;20046;-81
2022/02/08 04:55:32;;;;;;;4.33;1.50;;;5.00;99.40;;;;;;4973226;28;20039;-82
2022/02/08 05:42:06;;;;;;;5.97;1.00;;;5.20;98.00;;;;;;4977128;28;20034;-82
2022/02/08 05:47:19;;;;;;;6.97;1.40;;;5.20;98.00;;;;;;4917091;29;20077;-82
2022/02/08 05:49:51;;;;;;;5.23;1.03;;;5.20;97.90;;;;;;4951293;28;20491;-82
2022/02/08 05:52:34;;;;;;;3.90;1.00;;;5.20;97.80;;;;;;4959212;28;20094;-82
2022/02/08 05:55:00;;;;;;;5.87;0.80;;;5.30;97.90;;;;;;4967075;28;20038;-82
2022/02/08 05:57:26;;;;;;;5.73;1.00;;;5.30;97.70;;;;;;4968347;28;20029;-81
2022/02/08 05:59:52;;;;;;;4.33;1.10;;;5.20;98.00;;;;;;4966659;28;20030;-80
2022/02/08 06:02:19;;;;;;;6.53;0.73;;;5.30;97.80;;;;;;4958435;28;20039;-83
2022/02/08 06:04:45;;;;;;;6.47;1.47;;;5.30;97.70;;;;;;4955393;28;20055;-83
2022/02/08 06:07:18;;;;;;;5.93;1.10;;;5.30;97.70;;;;;;4971416;28;20035;-84
2022/02/08 06:09:44;;;;;;;3.87;1.10;;;5.30;97.90;;;;;;4990042;28;20411;-78
2022/02/08 06:12:10;;;;;;;3.77;0.83;;;5.30;97.80;;;;;;4973525;28;20042;-78
2022/02/08 06:14:36;;;;;;;3.73;1.30;;;5.30;97.80;;;;;;4974243;28;20408;-77
2022/02/08 06:17:02;;;;;;;4.30;0.90;;;5.30;97.70;;;;;;4973869;28;20049;-78
2022/02/08 06:19:28;;;;;;;4.33;0.97;;;5.30;97.90;;;;;;4974102;28;20456;-77
2022/02/08 06:21:53;;;;;;;5.90;1.00;;;5.30;97.60;;;;;;4956551;28;20059;-78
2022/02/08 06:24:19;;;;;;;6.30;0.90;;;5.30;97.80;;;;;;4969613;28;20028;-78
2022/02/08 06:26:44;;;;;;;3.03;0.90;;;5.30;97.70;;;;;;4970055;28;20090;-78
2022/02/08 06:29:18;;;;;;;6.17;0.97;;;5.40;97.40;;;;;;4954252;28;20035;-78
2022/02/08 06:31:45;;;;;;;7.33;0.90;;;5.40;97.50;;;;;;4971627;28;20031;-80
2022/02/08 06:34:14;;;;;;;7.73;0.97;;;5.40;97.30;;;;;;4955241;28;20370;-81
2022/02/08 06:36:40;;;;;;;5.80;1.10;;;5.50;96.90;;;;;;4971298;28;20074;-80
2022/02/08 06:39:06;;;;;;;6.63;1.00;;;5.50;97.00;;;;;;4970593;28;20388;-80
2022/02/08 06:41:32;;;;;;;8.40;1.00;;;5.50;96.90;;;;;;4971428;28;20032;-80
2022/02/08 06:44:00;;;;;;;5.33;1.00;;;5.50;97.20;;;;;;4970351;28;20106;-83
2022/02/08 06:46:26;;;;;;;5.17;1.40;;;5.50;97.10;;;;;;4970608;28;20047;-80
2022/02/08 06:48:52;;;;;;;7.53;1.40;;;5.50;97.10;;;;;;4955193;29;20031;-80
2022/02/08 06:51:18;;;;;;;8.23;1.20;;;5.50;97.30;;;;;;4954397;29;20034;-80
2022/02/08 06:53:44;;;;;;;4.97;1.00;;;5.50;97.30;;;;;;4954849;29;20031;-80
2022/02/08 06:56:09;;;;;;;7.03;1.53;;;5.60;97.00;;;;;;4953833;29;20489;-80
2022/02/08 06:59:20;;;;;;;4.03;0.70;;;5.60;97.00;;;;;;4970023;28;20091;-81
2022/02/08 07:01:26;;;;;;;5.67;1.27;;;5.60;97.30;;;;;;4951446;28;20484;-80
2022/02/08 07:03:52;;;;;;;4.20;0.63;;;5.60;97.30;;;;;;4954593;28;20055;-80
2022/02/08 07:06:18;;;;;;;5.83;1.00;;;5.60;96.90;;;;;;4955534;28;20039;-80
2022/02/08 07:08:44;;;;;;;6.00;0.83;;;5.60;97.30;;;;;;4970735;28;20032;-80
2022/02/08 07:11:15;;;;;;;4.50;1.30;;;5.60;97.10;;;;;;4970021;28;20030;-80
2022/02/08 07:13:43;;;;;;;5.60;1.05;;;5.70;97.00;;;;;;4954137;28;20078;-80
2022/02/08 07:16:10;;;;;;;7.13;1.10;;;5.70;96.60;;;;;;4970165;28;20114;-82
2022/02/08 07:18:35;;;;;;;4.40;0.87;;;5.70;97.00;;;;;;4970374;28;20114;-81
2022/02/08 07:21:01;;;;;;;6.97;1.73;;;5.70;96.80;;;;;;4969571;28;20074;-80
2022/02/08 07:23:27;;;;;;;9.37;2.20;;;5.70;97.00;;;;;;4953899;29;20038;-80
2022/02/08 07:25:54;;;;;;;4.57;1.20;;;5.70;97.20;;;;;;4955120;28;20034;-80
2022/02/08 07:28:20;;;;;;;4.80;1.03;;;5.80;96.80;;;;;;4969450;28;20477;-80
2022/02/08 07:30:46;;;;;;;4.17;0.77;;;5.80;97.00;;;;;;4969567;28;20097;-79
2022/02/08 07:33:12;;;;;;;2.37;0.80;;;5.80;96.70;;;;;;4954502;28;20435;-80
2022/02/08 07:38:24;;;;;;;4.13;1.13;;;5.80;96.50;;;;;;4955273;28;20023;-81
2022/02/08 07:43:16;;;;;;;5.53;0.90;;;5.90;96.50;;;;;;4954427;28;20090;-81
2022/02/08 07:45:42;;;;;;;6.23;1.13;;;5.90;96.70;;;;;;4955230;28;20035;-80
2022/02/08 07:48:08;;;;;;;2.00;0.90;;;5.90;96.40;;;;;;4953468;29;20027;-81
2022/02/08 07:50:38;;;;;;;5.13;0.97;;;6.00;95.90;;;;;;4954906;28;20102;-81
2022/02/08 07:53:07;;;;;;;3.37;0.97;;;6.00;95.70;;;;;;4969240;28;20070;-81
2022/02/08 07:55:33;;;;;;;5.13;0.80;;;6.00;95.90;;;;;;4955965;28;20024;-80
2022/02/08 07:57:59;;;;;;;5.63;1.30;;;6.10;95.60;;;;;;4972527;28;20023;-80
2022/02/08 08:00:24;;;;;;;4.07;1.00;;;6.10;95.20;;;;;;4959079;28;20491;-80
2022/02/08 08:02:52;;;;;;;3.77;0.83;;;6.10;94.90;;;;;;4973733;28;20043;-81
2022/02/08 08:05:18;;;;;;;4.97;1.00;;;6.10;94.70;;;;;;4973111;28;20441;-79
2022/02/08 08:07:45;;;;;;;6.63;1.13;;;6.20;94.70;;;;;;4957845;28;20451;-79
2022/02/08 08:10:19;;;;;;;3.07;0.93;;;6.20;94.30;;;;;;4973358;28;20059;-82
2022/02/08 08:12:52;;;;;;;7.90;1.00;;;6.20;94.20;;;;;;4974089;28;20102;-82
2022/02/08 08:16:12;;;;;;;7.73;0.87;;;6.20;94.00;;;;;;4958248;28;20031;-81
2022/02/08 08:20:39;;;;;;;;;;;6.20;93.90;;;;;;4958764;28;20035;-80
2022/02/08 08:23:04;;;;;;;4.83;1.00;;;6.20;93.10;;;;;;4956474;28;19915;-81
2022/02/08 08:25:30;;;;;;;4.00;1.03;;;6.30;93.90;;;;;;4957381;28;20027;-80
2022/02/08 08:27:55;;;;;;;5.17;0.83;;;6.30;93.00;;;;;;4957525;28;20027;-80
2022/02/08 08:30:21;;;;;;;5.07;1.00;;;6.30;93.50;;;;;;4973395;28;20122;-80
2022/02/08 08:32:47;;;;;;;4.40;0.80;;;6.30;94.00;;;;;;4965837;28;20183;-79
2022/02/08 08:35:19;;;;;;;3.03;0.70;;;6.40;93.50;;;;;;4955075;29;20039;-82
2022/02/08 08:37:46;;;;;;;5.27;1.03;;;6.40;93.50;;;;;;4957018;28;20034;-82
2022/02/08 08:40:36;;;;;;;5.93;1.07;;;6.40;93.10;;;;;;4952122;29;20031;-82
2022/02/08 08:43:22;;;;;;;3.60;0.97;;;6.40;93.30;;;;;;4957599;28;20071;-82
2022/02/08 08:53:25;;;;;;;1.57;0.80;;;6.50;93.20;;;;;;4957766;28;20485;-83
2022/02/08 08:55:51;;;;;;;5.03;0.83;;;6.60;93.40;;;;;;4958292;28;20465;-82
2022/02/08 08:58:17;;;;;;;3.60;0.67;;;6.60;93.20;;;;;;4970848;28;20534;-83
2022/02/08 09:00:42;;;;;;;1.77;0.73;;;6.60;93.20;;;;;;4973279;28;20031;-80
2022/02/08 09:03:08;;;;;;;3.80;0.83;;;6.60;93.30;;;;;;4973778;28;20039;-78
2022/02/08 09:05:34;;;;;;;6.67;1.23;;;6.60;93.30;;;;;;4959909;28;20035;-79
2022/02/08 09:07:59;;;;;;;4.03;0.90;;;6.60;93.30;;;;;;4958430;28;20491;-84
2022/02/08 09:10:32;;;;;;;4.50;0.80;;;6.60;93.20;;;;;;4959914;28;20033;-87
2022/02/08 09:13:20;;;;;;;5.40;1.13;;;6.60;93.70;;;;;;4959718;28;20030;-89
2022/02/08 09:15:58;;;;;;;4.63;0.93;;;6.70;93.40;;;;;;4977942;28;20472;-85
2022/02/08 09:29:07;;;;;;;4.77;1.20;;;6.90;93.40;;;;;;4977912;28;20096;-85
2022/02/08 09:31:36;;;;;;;7.85;1.17;;;7.00;93.30;;;;;;4977973;28;20027;-88
2022/02/08 09:34:01;;;;;;;4.83;1.17;;;7.00;93.70;;;;;;4959896;28;20038;-86
2022/02/08 09:36:28;;;;;;;3.20;0.60;;;7.00;93.30;;;;;;4960018;28;20081;-85
2022/02/08 09:38:55;;;;;;;5.63;1.13;;;7.00;93.40;;;;;;4959391;28;20054;-85
2022/02/08 09:41:22;;;;;;;6.80;1.23;;;7.00;93.30;;;;;;4976351;28;20031;-85
2022/02/08 09:43:49;;;;;;;7.00;1.20;;;7.00;93.30;;;;;;4959524;28;20071;-85
2022/02/08 09:46:17;;;;;;;5.03;0.83;;;7.00;93.30;;;;;;4958950;28;20071;-86
2022/02/08 09:48:48;;;;;;;4.77;0.87;;;7.00;93.40;;;;;;4959687;28;20030;-86
2022/02/08 09:51:16;;;;;;;7.90;1.08;;;7.10;93.50;;;;;;4959124;28;20253;-86
2022/02/08 09:53:43;;;;;;;4.77;0.93;;;7.10;93.30;;;;;;4959254;28;20041;-87
2022/02/08 09:56:10;;;;;;;7.07;1.23;;;7.20;93.00;;;;;;4958892;28;20392;-85
2022/02/08 09:58:36;;;;;;;5.60;1.00;;;7.20;93.10;;;;;;4958874;28;20030;-85
2022/02/08 10:01:17;;;;;;;2.97;0.90;;;7.30;93.40;;;;;;4958709;28;20031;-86
2022/02/08 10:03:54;;;;;;;7.87;0.83;;;7.30;92.80;;;;;;4958890;28;20488;-86
2022/02/08 10:06:21;;;;;;;3.70;1.20;;;7.30;92.90;;;;;;4961076;28;20026;-85
2022/02/08 10:08:58;;;;;;;6.40;1.27;;;7.40;93.10;;;;;;4959689;28;20027;-87
2022/02/08 10:11:28;;;;;;;5.23;1.40;;;7.40;93.20;;;;;;4960635;28;20535;-86
2022/02/08 10:22:09;;;;;;;3.83;1.10;;;7.40;93.30;;;;;;4975970;28;20042;-84
2022/02/08 10:24:37;;;;;;;4.07;1.10;;;7.40;93.10;;;;;;4959612;28;20472;-86
2022/02/08 10:37:55;;;;;;;7.60;1.23;;;7.60;93.30;;;;;;4975050;28;20387;-83
2022/02/08 10:40:24;;;;;;;3.30;0.90;;;7.60;93.30;;;;;;4965157;28;20026;-83
2022/02/08 10:42:58;;;;;;;6.63;1.10;;;7.60;93.20;;;;;;4975073;28;20827;-81
2022/02/08 10:45:33;;;;;;;6.68;1.17;;;7.60;93.80;;;;;;4958392;28;20476;-83
2022/02/08 10:48:26;;;;;;;8.35;1.00;;;7.70;93.60;;;;;;4957986;28;20503;-83
2022/02/08 10:50:56;;;;;;;6.30;1.15;;;7.70;94.00;;;;;;4955591;28;20619;-82
2022/02/08 10:53:25;;;;;;;7.43;1.20;;;7.70;94.20;;;;;;4958623;28;20042;-82
2022/02/08 10:55:59;;;;;;;4.45;1.20;;;7.70;94.30;;;;;;4959290;28;20540;-86
2022/02/08 11:01:14;;;;;;;6.87;1.50;;;7.70;94.90;;;;;;4976239;28;20379;-84
2022/02/08 11:04:01;;;;;;;4.32;1.00;;;7.80;95.00;;;;;;4958494;28;20051;-85
2022/02/08 11:06:36;;;;;;;6.50;1.33;;;7.80;95.60;;;;;;4959554;28;20128;-84
2022/02/08 11:12:09;;;;;;;6.75;1.00;;;7.80;95.40;;;;;;4975146;28;20031;-84
2022/02/08 11:15:02;;;;;;;7.20;1.85;;;7.90;95.60;;;;;;4958676;28;20105;-84
2022/02/08 11:22:49;;;;;;;4.13;1.00;;;7.90;96.70;;;;;;4976193;28;20045;-86
2022/02/08 11:25:25;;;;;;;6.07;1.00;;;7.90;97.20;;;;;;4975956;28;20252;-86
2022/02/08 11:27:56;;;;;;;7.28;2.15;;;7.90;98.10;;;;;;4959911;28;20030;-86
2022/02/08 11:30:56;;;;;;;6.60;1.38;;;7.90;99.00;;;;;;4958320;28;20050;-83
2022/02/08 11:39:26;;;;;;;10.45;1.80;;;7.90;99.90;;;;;;4975042;28;20041;-86
2022/02/08 11:53:40;;;;;;;5.43;1.40;;;7.90;99.90;;;;;;4970661;28;20062;-88
2022/02/08 11:59:12;;;;;;;10.03;2.00;;;7.80;99.90;;;;;;4975099;28;20054;-88
2022/02/08 12:02:04;;;;;;;6.28;1.40;;;7.90;99.90;;;;;;4958901;28;20038;-87
2022/02/08 12:04:42;;;;;;;6.78;1.60;;;7.90;99.90;;;;;;4955783;28;20042;-85
2022/02/08 12:07:16;;;;;;;7.88;1.45;;;7.80;99.90;;;;;;4957367;28;20595;-85
2022/02/08 12:12:47;;;;;;;6.65;1.40;;;7.90;99.90;;;;;;4974437;28;20070;-82
2022/02/08 12:54:15;;;;;;;7.35;1.40;;;8.30;99.90;;;;;;4979963;28;20046;-89
2022/02/08 13:04:56;;;;;;;5.63;1.63;;;8.20;99.90;;;;;;4977528;28;20055;-84
2022/02/08 13:19:15;;;;;;;6.18;1.50;;;8.30;99.90;;;;;;4978315;28;20030;-85
2022/02/08 14:02:58;;;;;;;5.95;1.30;;;8.80;99.90;;;;;;4964084;28;20514;-86
2022/02/08 14:07:57;;;;;;;7.57;1.70;;;8.90;99.90;;;;;;4978175;28;20035;-87
2022/02/08 14:10:46;;;;;;;7.68;1.77;;;8.90;99.90;;;;;;4973675;28;20035;-88
2022/02/08 14:21:13;;;;;;;9.88;1.27;;;9.00;99.90;;;;;;4978097;28;20058;-86
2022/02/08 15:06:52;;;;;;;6.85;1.20;;;8.90;99.90;;;;;;4978197;28;20102;-87
2022/02/08 15:09:22;;;;;;;7.30;1.20;;;9.00;99.90;;;;;;4978857;28;20031;-89
2022/02/08 15:12:05;;;;;;;9.02;1.40;;;9.00;99.90;;;;;;4962342;28;20031;-86
2022/02/08 15:14:36;;;;;;;6.63;2.10;;;8.90;99.90;;;;;;4961516;28;20022;-89
2022/02/08 15:17:02;;;;;;;7.60;1.80;;;8.90;99.90;;;;;;4960018;28;20034;-85
2022/02/08 15:19:28;;;;;;;8.52;1.80;;;8.90;99.90;;;;;;4960047;28;20116;-87
2022/02/08 15:21:54;;;;;;;6.35;1.42;;;8.90;99.90;;;;;;4963436;28;20026;-91
2022/02/08 15:24:20;;;;;;;9.93;1.40;;;9.00;99.90;;;;;;4959774;28;20190;-92
2022/02/08 15:26:46;;;;;;;9.48;1.75;;;9.00;99.90;;;;;;4961643;28;20027;-90
2022/02/08 15:29:13;;;;;;;9.02;1.73;;;9.00;99.90;;;;;;4959799;28;20038;-85
2022/02/08 15:31:39;;;;;;;5.25;1.52;;;9.00;99.90;;;;;;4961353;28;20035;-88
2022/02/08 15:34:05;;;;;;;6.90;1.20;;;9.00;99.90;;;;;;4961371;28;20039;-88
2022/02/08 15:36:31;;;;;;;4.72;1.52;;;9.10;99.90;;;;;;4961235;28;20029;-84
2022/02/08 15:39:05;;;;;;;4.60;0.93;;;9.10;99.90;;;;;;4962009;28;20054;-89
2022/02/08 15:41:34;;;;;;;5.53;1.30;;;9.10;99.90;;;;;;4964329;28;20057;-85
2022/02/08 15:43:59;;;;;;;2.80;0.90;;;9.10;99.90;;;;;;4960924;28;20097;-90
2022/02/08 15:46:26;;;;;;;3.45;1.00;;;9.10;99.90;;;;;;4960880;28;20480;-86
2022/02/08 15:48:54;;;;;;;3.30;1.10;;;9.10;99.90;;;;;;4960722;28;20030;-88
2022/02/08 15:51:28;;;;;;;4.68;1.35;;;9.10;99.90;;;;;;4963588;28;20226;-92
2022/02/08 15:56:41;;;;;;;4.65;1.00;;;9.10;99.90;;;;;;4978360;28;20030;-90
2022/02/08 16:07:06;;;;;;;9.18;1.38;;;9.10;99.90;;;;;;4975193;28;20095;-87
2022/02/08 16:17:38;;;;;;;4.75;1.35;;;9.10;99.90;;;;;;4977099;28;20022;-89
2022/02/08 16:20:13;;;;;;;5.90;1.30;;;9.10;99.90;;;;;;4959222;28;20058;-87
2022/02/08 16:23:13;;;;;;;5.20;1.42;;;9.10;99.90;;;;;;4966966;28;20502;-89
2022/02/08 16:28:35;;;;;;;7.25;3.28;;;9.10;99.90;;;;;;4978369;28;20019;-90
2022/02/08 16:31:28;;;;;;;7.72;2.00;;;9.10;99.90;;;;;;4977644;28;20023;-88
2022/02/08 16:58:08;;;;;;;9.55;2.47;;;9.20;99.90;;;;;;4978973;28;20033;-88
2022/02/08 17:00:35;;;;;;;9.80;2.25;;;9.10;99.90;;;;;;4963038;28;20057;-86
2022/02/08 17:03:05;;;;;;;10.68;2.10;;;9.10;99.90;;;;;;4964167;28;20062;-89
2022/02/08 17:05:31;;;;;;;6.70;1.75;;;9.10;99.90;;;;;;4964484;28;20062;-90
2022/02/08 17:07:58;;;;;;;10.75;2.63;;;9.10;99.90;;;;;;4962775;28;20122;-86
2022/02/08 17:10:39;;;;;;;12.63;2.28;;;9.10;99.90;;;;;;4960718;28;20026;-87
2022/02/08 17:13:28;;;;;;;7.00;1.83;;;9.10;99.90;;;;;;4960283;28;20081;-86
2022/02/08 17:45:47;;;;;;;10.32;2.50;;;9.00;99.90;;;;;;4978565;28;20499;-84
2022/02/08 17:48:13;;;;;;;14.05;3.63;;;8.90;99.90;;;;;;4946234;28;20034;-83
2022/02/08 17:50:41;;;;;;;13.80;3.15;;;8.90;99.90;;;;;;4961118;28;20031;-85
2022/02/08 17:53:06;;;;;;;9.25;2.95;;;8.90;99.90;;;;;;4963091;28;20034;-85
2022/02/08 17:55:32;;;;;;;11.13;2.88;;;8.90;99.90;;;;;;4963072;28;20034;-86
2022/02/08 17:58:00;;;;;;;12.18;2.65;;;8.90;99.90;;;;;;4960936;28;20019;-86
2022/02/08 18:00:26;;;;;;;6.18;2.42;;;8.80;99.90;;;;;;4961962;28;20121;-85
2022/02/08 18:02:52;;;;;;;12.07;3.05;;;8.80;99.90;;;;;;4961722;28;20046;-84
2022/02/08 18:05:18;;;;;;;12.10;2.35;;;8.90;99.90;;;;;;4961579;28;20147;-84
2022/02/08 18:07:44;;;;;;;10.32;2.42;;;8.80;99.90;;;;;;4962706;28;20091;-85
2022/02/08 18:10:12;;;;;;;8.98;2.47;;;8.90;99.90;;;;;;4960279;28;20038;-82
2022/02/08 18:12:40;;;;;;;8.77;2.58;;;8.90;99.90;;;;;;4959373;28;20038;-85
2022/02/08 18:15:11;;;;;;;7.40;2.35;;;8.80;99.90;;;;;;4958954;28;20035;-84
2022/02/08 18:18:00;;;;;;;9.90;2.45;;;8.90;99.90;;;;;;4959316;28;20035;-84
2022/02/08 18:20:48;;;;;;;9.52;2.53;;;8.80;99.90;;;;;;4959514;28;20022;-84
2022/02/08 18:23:49;;;;;;;6.82;2.13;;;8.80;99.90;;;;;;4975488;28;20038;-84
2022/02/08 19:09:27;;;;;;;6.72;1.48;;;8.90;99.90;;;;;;4974943;28;20042;-81
2022/02/08 19:12:12;;;;;;;4.68;1.63;;;8.90;99.90;;;;;;4960301;28;20050;-91
2022/02/08 19:18:03;;;;;;;5.65;2.05;;;9.00;99.90;;;;;;4964939;28;20030;-86
2022/02/08 19:20:34;;;;;;;3.65;1.77;;;9.00;99.90;;;;;;4961319;28;20026;-84
2022/02/08 19:23:00;;;;;;;4.07;1.45;;;8.90;99.90;;;;;;4959141;28;20049;-87
2022/02/08 19:25:26;;;;;;;5.28;1.60;;;9.00;99.90;;;;;;4958131;28;20035;-83
2022/02/08 19:27:54;;;;;;;5.05;1.50;;;8.90;99.90;;;;;;4958768;28;20045;-86
2022/02/08 19:30:20;;;;;;;1.92;1.02;;;8.90;99.90;;;;;;4960914;28;20032;-94
2022/02/08 19:32:46;;;;;;;1.58;0.90;;;8.90;99.90;;;;;;4957651;28;20035;-88
2022/02/08 19:35:13;;;;;;;3.25;1.17;;;8.90;99.90;;;;;;4958012;28;20022;-88
2022/02/08 19:37:39;;;;;;;2.47;1.05;;;9.00;99.90;;;;;;4960550;28;20090;-89
2022/02/08 19:40:06;;;;;;;4.43;1.13;;;9.00;99.90;;;;;;4959358;28;20476;-86
2022/02/08 19:42:36;;;;;;;2.47;1.40;;;9.00;99.90;;;;;;4959228;28;20093;-86
2022/02/08 19:45:12;;;;;;;1.77;1.00;;;9.00;99.90;;;;;;4974826;28;20034;-91
2022/02/08 19:47:38;;;;;;;3.78;0.90;;;9.00;99.90;;;;;;4963744;28;20376;-93
2022/02/08 19:50:05;;;;;;;2.58;0.85;;;8.90;99.90;;;;;;4982173;28;20027;-89
2022/02/08 19:52:33;;;;;;;4.03;0.73;;;8.90;99.90;;;;;;4974756;28;20183;-92
2022/02/08 19:57:30;;;;;;;1.75;0.63;;;8.90;99.90;;;;;;4984033;28;20023;-92
2022/02/08 19:59:57;;;;;;;0.93;0.50;;;8.90;99.90;;;;;;4966918;28;20026;-93
2022/02/08 20:02:26;;;;;;;1.25;0.50;;;8.90;99.90;;;;;;4969170;28;20060;-94
2022/02/08 20:04:52;;;;;;;3.00;0.47;;;8.90;99.90;;;;;;4967785;28;20054;-94
2022/02/08 20:07:21;;;;;;;0.73;0.45;;;8.90;99.90;;;;;;4968342;28;20280;-93
2022/02/08 20:09:52;;;;;;;0.70;0.22;;;8.90;99.90;;;;;;4974677;28;20022;-95
2022/02/08 20:12:18;;;;;;;2.70;0.30;;;8.90;99.90;;;;;;4970534;28;20031;-93
2022/02/08 20:14:44;;;;;;;0.50;0.40;;;9.00;99.90;;;;;;4967337;28;20039;-94
2022/02/08 20:17:10;;;;;;;2.45;0.28;;;9.00;99.90;;;;;;4965718;28;20026;-92
2022/02/08 20:19:36;;;;;;;2.45;0.50;;;9.00;99.90;;;;;;4966119;28;20030;-91
2022/02/08 20:22:09;;;;;;;1.52;0.60;;;9.00;99.90;;;;;;4982508;23;20023;-92
2022/02/08 20:24:35;;;;;;;1.60;0.40;;;9.00;99.90;;;;;;5054448;23;20047;-92
2022/02/08 20:27:34;;;;;;;2.20;0.47;;;9.00;99.90;;;;;;4966663;28;20029;-88
2022/02/08 20:29:58;;;;;;;2.47;1.08;;;9.00;99.90;;;;;;4962597;28;20049;-90
2022/02/08 20:32:24;;;;;;;2.28;0.73;;;9.00;99.90;;;;;;4964779;28;20467;-89
2022/02/08 20:34:50;;;;;;;2.38;0.95;;;9.00;99.90;;;;;;4959867;28;20031;-88
2022/02/08 20:37:16;;;;;;;2.00;0.80;;;9.00;99.90;;;;;;4959816;28;20058;-88
2022/02/08 20:39:41;;;;;;;1.27;0.70;;;9.00;99.90;;;;;;4972388;28;20035;-89
2022/02/08 20:42:07;;;;;;;1.55;0.50;;;9.00;99.90;;;;;;4960906;28;20062;-90
2022/02/08 20:44:37;;;;;;;0.77;0.47;;;9.00;99.90;;;;;;4966435;28;20053;-87
2022/02/08 20:47:23;;;;;;;1.13;0.50;;;9.00;99.90;;;;;;4972218;28;20031;-87
2022/02/08 20:49:56;;;;;;;0.38;0.30;;;9.00;99.90;;;;;;4961720;28;20027;-89
2022/02/08 20:52:22;;;;;;;1.58;0.60;;;9.00;99.90;;;;;;4961610;29;20127;-89